createdAt,value
2018-07-10T00:03:22.679Z,65.50
2018-07-10T00:06:03.343Z,65.40
2018-07-10T00:10:47.312Z,64.90
2018-07-10T00:13:16.724Z,65.10
2018-07-10T00:15:46.005Z,65.60
2018-07-10T00:18:15.377Z,66.10
2018-07-10T00:20:44.641Z,66.40
2018-07-10T00:23:13.895Z,66.60
2018-07-10T00:25:43.143Z,66.90
2018-07-10T00:28:12.437Z,67.80
2018-07-10T00:30:41.699Z,67.30
2018-07-10T00:33:11.007Z,67.40
2018-07-10T00:35:40.219Z,67.40
2018-07-10T00:38:20.173Z,67.10
2018-07-10T00:40:49.532Z,66.80
2018-07-10T00:43:18.898Z,66.90
2018-07-10T00:45:48.149Z,67.10
2018-07-10T00:48:17.435Z,67.20
2018-07-10T00:50:46.819Z,67.40
2018-07-10T00:53:16.109Z,67.80
2018-07-10T00:55:45.344Z,68.20
2018-07-10T00:58:15.053Z,68.40
2018-07-10T01:00:48.391Z,68.20
2018-07-10T01:03:17.914Z,68.00
2018-07-10T01:05:47.483Z,68.10
2018-07-10T01:08:16.895Z,68.10
2018-07-10T01:10:53.699Z,68.00
2018-07-10T01:13:23.170Z,67.90
2018-07-10T01:15:52.406Z,67.90
2018-07-10T01:18:29.007Z,68.40
2018-07-10T01:20:58.239Z,68.70
2018-07-10T01:23:30.972Z,68.50
2018-07-10T01:26:04.070Z,68.50
2018-07-10T01:28:33.518Z,68.70
2018-07-10T01:31:03.149Z,68.90
2018-07-10T01:33:32.420Z,68.90
2018-07-10T01:36:03.939Z,69.00
2018-07-10T01:38:33.698Z,68.90
2018-07-10T01:41:02.972Z,68.90
2018-07-10T01:43:32.599Z,69.20
2018-07-10T01:46:01.928Z,69.40
2018-07-10T01:48:31.246Z,69.30
2018-07-10T01:51:00.749Z,68.90
2018-07-10T01:53:30.153Z,68.80
2018-07-10T01:55:59.428Z,69.20
2018-07-10T01:58:28.951Z,69.30
2018-07-10T02:00:58.171Z,69.20
2018-07-10T02:03:28.266Z,69.40
2018-07-10T02:08:28.763Z,69.60
2018-07-10T02:10:58.124Z,69.60
2018-07-10T02:13:27.391Z,69.80
2018-07-10T02:15:56.823Z,70.00
2018-07-10T02:18:26.136Z,70.00
2018-07-10T02:20:59.040Z,69.80
2018-07-10T02:23:40.948Z,70.10
2018-07-10T02:26:20.592Z,70.40
2018-07-10T02:28:51.169Z,70.40
2018-07-10T02:31:21.380Z,70.50
2018-07-10T02:33:51.484Z,70.30
2018-07-10T02:36:21.850Z,70.30
2018-07-10T02:38:53.249Z,70.40
2018-07-10T02:41:23.777Z,70.40
2018-07-10T02:43:59.072Z,70.30
2018-07-10T02:46:29.907Z,70.50
2018-07-10T02:49:21.883Z,70.70
2018-07-10T02:51:56.690Z,70.90
2018-07-10T02:54:28.531Z,70.80
2018-07-10T02:56:58.480Z,71.00
2018-07-10T02:59:35.251Z,70.70
2018-07-10T03:02:06.032Z,70.90
2018-07-10T03:04:36.816Z,71.10
2018-07-10T03:07:06.211Z,71.50
2018-07-10T03:09:35.566Z,71.20
2018-07-10T03:12:05.297Z,70.90
2018-07-10T03:14:34.753Z,70.90
2018-07-10T03:17:04.107Z,71.30
2018-07-10T03:19:33.473Z,71.40
2018-07-10T03:22:02.841Z,71.40
2018-07-10T03:24:32.163Z,71.40
2018-07-10T03:27:01.536Z,71.60
2018-07-10T03:29:30.843Z,71.80
2018-07-10T03:32:00.157Z,72.10
2018-07-10T03:34:29.452Z,72.40
2018-07-10T03:36:58.861Z,73.00
2018-07-10T03:39:28.179Z,72.30
2018-07-10T03:41:57.647Z,72.50
2018-07-10T03:44:27.423Z,72.50
2018-07-10T03:46:56.784Z,72.40
2018-07-10T03:49:26.042Z,72.50
2018-07-10T03:51:56.283Z,72.70
2018-07-10T03:54:25.711Z,72.80
2018-07-10T03:56:55.092Z,72.70
2018-07-10T03:59:25.008Z,72.80
2018-07-10T04:01:54.512Z,73.70
2018-07-10T04:04:24.139Z,72.80
2018-07-10T04:06:53.615Z,72.70
2018-07-10T04:09:22.943Z,73.00
2018-07-10T04:11:52.936Z,73.10
2018-07-10T04:14:23.999Z,73.30
2018-07-10T04:17:03.425Z,73.30
2018-07-10T04:19:32.815Z,73.10
2018-07-10T04:22:03.058Z,72.40
2018-07-10T04:24:32.380Z,71.80
2018-07-10T04:27:08.311Z,71.40
2018-07-10T04:29:49.548Z,71.00
2018-07-10T04:32:18.920Z,70.80
2018-07-10T04:37:18.091Z,70.50
2018-07-10T04:39:47.491Z,70.20
2018-07-10T04:42:39.434Z,70.00
2018-07-10T04:45:10.928Z,70.00
2018-07-10T04:47:43.899Z,70.00
2018-07-10T04:50:18.138Z,70.00
2018-07-10T04:52:53.696Z,70.10
2018-07-10T04:55:23.042Z,70.30
2018-07-10T04:58:05.028Z,70.40
2018-07-10T05:00:39.528Z,70.50
2018-07-10T05:03:08.958Z,70.70
2018-07-10T05:05:38.303Z,71.00
2018-07-10T05:08:07.618Z,71.10
2018-07-10T05:10:37.267Z,71.30
2018-07-10T05:13:07.602Z,71.60
2018-07-10T05:15:38.199Z,71.50
2018-07-10T05:20:38.340Z,71.00
2018-07-10T05:23:07.782Z,71.00
2018-07-10T05:25:39.900Z,70.90
2018-07-10T05:28:09.320Z,70.90
2018-07-10T05:30:42.152Z,70.80
2018-07-10T05:33:13.201Z,70.50
2018-07-10T05:35:43.503Z,70.50
2018-07-10T05:38:12.827Z,70.60
2018-07-10T05:40:42.215Z,70.30
2018-07-10T05:43:14.908Z,70.10
2018-07-10T05:45:45.286Z,70.10
2018-07-10T05:48:16.835Z,70.10
2018-07-10T05:50:46.257Z,70.30
2018-07-10T05:53:15.647Z,70.30
2018-07-10T05:55:47.383Z,70.30
2018-07-10T05:58:16.731Z,70.50
2018-07-10T06:00:46.007Z,70.70
2018-07-10T06:03:15.835Z,70.60
2018-07-10T06:05:45.196Z,70.40
2018-07-10T06:08:18.223Z,70.40
2018-07-10T06:10:47.611Z,70.30
2018-07-10T06:13:16.955Z,70.20
2018-07-10T06:15:46.351Z,70.40
2018-07-10T06:18:15.812Z,70.60
2018-07-10T06:20:45.263Z,70.60
2018-07-10T06:23:14.603Z,70.70
2018-07-10T06:25:43.960Z,71.00
2018-07-10T06:28:16.545Z,71.20
2018-07-10T06:30:45.929Z,71.10
2018-07-10T06:33:20.734Z,71.10
2018-07-10T06:36:12.455Z,71.00
2018-07-10T06:38:47.887Z,70.90
2018-07-10T06:41:17.572Z,71.00
2018-07-10T06:43:49.842Z,71.30
2018-07-10T06:46:22.797Z,70.80
2018-07-10T06:48:54.623Z,70.60
2018-07-10T06:51:23.927Z,71.10
2018-07-10T06:53:56.360Z,70.80
2018-07-10T06:56:28.820Z,70.10
2018-07-10T06:58:58.403Z,70.20
2018-07-10T07:01:27.706Z,70.40
2018-07-10T07:04:00.464Z,70.90
2018-07-10T07:06:31.285Z,71.50
2018-07-10T07:09:00.667Z,71.90
2018-07-10T07:11:30.352Z,72.30
2018-07-10T07:14:00.014Z,72.80
2018-07-10T07:16:29.455Z,73.20
2018-07-10T07:18:58.868Z,73.60
2018-07-10T07:21:28.252Z,74.00
2018-07-10T07:23:57.532Z,74.30
2018-07-10T07:26:27.031Z,74.80
2018-07-10T07:28:56.388Z,75.20
2018-07-10T07:31:26.545Z,75.50
2018-07-10T07:33:55.897Z,76.00
2018-07-10T07:36:25.172Z,76.20
2018-07-10T07:38:54.573Z,76.30
2018-07-10T07:41:23.988Z,76.20
2018-07-10T07:43:53.335Z,76.10
2018-07-10T07:46:22.819Z,75.90
2018-07-10T07:48:52.154Z,75.50
2018-07-10T07:51:21.553Z,75.30
2018-07-10T07:53:51.768Z,75.30
2018-07-10T07:56:21.319Z,75.20
2018-07-10T07:58:50.767Z,74.90
2018-07-10T08:01:20.110Z,74.90
2018-07-10T08:03:49.490Z,74.90
2018-07-10T08:06:18.802Z,75.30
2018-07-10T08:08:48.202Z,75.30
2018-07-10T08:11:17.573Z,75.90
2018-07-10T08:13:46.935Z,76.10
2018-07-10T08:16:16.298Z,76.30
2018-07-10T08:18:45.610Z,76.30
2018-07-10T08:21:14.942Z,76.20
2018-07-10T08:23:44.347Z,75.90
2018-07-10T08:26:13.720Z,75.90
2018-07-10T08:28:43.198Z,76.00
2018-07-10T08:31:12.442Z,76.30
2018-07-10T08:33:41.930Z,76.30
2018-07-10T08:36:11.035Z,76.50
2018-07-10T08:41:26.000Z,76.70
2018-07-10T08:43:55.698Z,76.60
2018-07-10T08:46:27.915Z,76.60
2018-07-10T08:48:57.335Z,76.60
2018-07-10T08:51:26.684Z,76.60
2018-07-10T08:53:56.435Z,76.50
2018-07-10T08:56:26.107Z,76.60
2018-07-10T08:58:55.501Z,76.60
2018-07-10T09:01:25.395Z,76.60
2018-07-10T09:03:54.761Z,76.60
2018-07-10T09:06:24.023Z,76.70
2018-07-10T09:09:01.572Z,76.90
2018-07-10T09:11:30.911Z,77.20
2018-07-10T09:16:29.272Z,79.00
2018-07-10T09:18:58.747Z,79.90
2018-07-10T09:21:28.103Z,80.70
2018-07-10T09:23:57.511Z,81.50
2018-07-10T09:26:27.726Z,82.30
2018-07-10T09:28:57.223Z,83.10
2018-07-10T09:31:26.655Z,83.60
2018-07-10T09:33:56.208Z,84.00
2018-07-10T09:36:25.568Z,84.80
2018-07-10T09:38:55.307Z,85.40
2018-07-10T09:41:24.621Z,85.50
2018-07-10T09:43:54.273Z,85.90
2018-07-10T09:46:23.599Z,86.40
2018-07-10T09:48:52.895Z,86.80
2018-07-10T09:51:22.232Z,87.20
2018-07-10T09:53:51.590Z,87.30
2018-07-10T09:56:20.914Z,87.40
2018-07-10T09:58:52.184Z,87.30
2018-07-10T10:01:26.788Z,87.20
2018-07-10T10:03:56.934Z,87.30
2018-07-10T10:06:26.219Z,87.50
2018-07-10T10:08:55.667Z,88.00
2018-07-10T10:11:24.919Z,88.10
2018-07-10T10:13:54.235Z,88.30
2018-07-10T10:16:23.603Z,88.20
2018-07-10T10:18:56.302Z,88.00
2018-07-10T10:21:28.152Z,88.00
2018-07-10T10:23:59.367Z,88.10
2018-07-10T10:26:29.239Z,88.00
2018-07-10T10:28:58.680Z,87.50
2018-07-10T10:31:28.070Z,86.90
2018-07-10T10:33:57.406Z,86.90
2018-07-10T10:36:26.711Z,86.30
2018-07-10T10:38:56.001Z,85.70
2018-07-10T10:41:25.337Z,84.90
2018-07-10T10:43:54.665Z,85.10
2018-07-10T10:46:24.092Z,85.20
2018-07-10T10:48:54.094Z,85.20
2018-07-10T10:51:24.042Z,85.00
2018-07-10T10:53:53.515Z,85.20
2018-07-10T10:56:22.940Z,85.50
2018-07-10T10:58:52.610Z,85.30
2018-07-10T11:01:21.994Z,85.00
2018-07-10T11:03:51.399Z,85.00
2018-07-10T11:06:21.277Z,85.00
2018-07-10T11:08:50.559Z,85.10
2018-07-10T11:11:20.051Z,85.10
2018-07-10T11:13:49.432Z,85.50
2018-07-10T11:16:18.903Z,85.70
2018-07-10T11:19:56.159Z,85.70
2018-07-10T11:22:25.538Z,85.70
2018-07-10T11:25:10.727Z,85.60
2018-07-10T11:27:55.789Z,85.60
2018-07-10T11:30:25.076Z,85.60
2018-07-10T11:32:54.455Z,85.60
2018-07-10T11:35:24.053Z,85.70
2018-07-10T11:37:53.518Z,85.40
2018-07-10T11:40:23.039Z,85.30
2018-07-10T11:42:52.380Z,85.10
2018-07-10T11:45:22.359Z,84.80
2018-07-10T11:47:51.858Z,84.30
2018-07-10T11:50:21.149Z,83.40
2018-07-10T11:52:50.471Z,82.30
2018-07-10T11:55:19.740Z,80.80
2018-07-10T11:57:49.775Z,79.70
2018-07-10T12:00:19.782Z,79.50
2018-07-10T12:02:50.112Z,78.40
2018-07-10T12:05:20.827Z,77.70
2018-07-10T12:07:54.901Z,76.70
2018-07-10T12:10:26.331Z,75.70
2018-07-10T12:12:55.819Z,76.70
2018-07-10T12:15:25.579Z,76.80
2018-07-10T12:17:56.790Z,77.10
2018-07-10T12:20:30.079Z,75.60
2018-07-10T12:23:00.571Z,74.50
2018-07-10T12:25:40.904Z,74.40
2018-07-10T12:28:11.661Z,74.00
2018-07-10T12:30:41.115Z,73.90
2018-07-10T12:33:10.658Z,73.30
2018-07-10T12:35:40.086Z,73.40
2018-07-10T12:38:09.414Z,73.80
2018-07-10T12:40:38.743Z,74.30
2018-07-10T12:43:08.090Z,74.30
2018-07-10T12:45:37.507Z,73.50
2018-07-10T12:48:06.848Z,73.00
2018-07-10T12:50:36.218Z,72.20
2018-07-10T12:53:05.570Z,71.30
2018-07-10T12:55:35.994Z,70.20
2018-07-10T12:58:05.506Z,69.80
2018-07-10T13:00:36.807Z,69.70
2018-07-10T13:03:07.684Z,69.90
2018-07-10T13:05:48.307Z,70.00
2018-07-10T13:08:18.143Z,69.60
2018-07-10T13:10:47.584Z,69.60
2018-07-10T13:13:17.267Z,69.70
2018-07-10T13:15:46.735Z,69.60
2018-07-10T13:18:17.295Z,69.40
2018-07-10T13:20:46.724Z,69.50
2018-07-10T13:23:16.139Z,69.20
2018-07-10T13:25:45.439Z,68.80
2018-07-10T13:28:14.835Z,68.60
2018-07-10T13:30:44.424Z,68.50
2018-07-10T13:33:13.681Z,68.60
2018-07-10T13:35:43.163Z,69.00
2018-07-10T13:38:13.463Z,69.00
2018-07-10T13:40:42.884Z,68.80
2018-07-10T13:43:12.242Z,68.90
2018-07-10T13:45:41.568Z,68.70
2018-07-10T13:48:10.895Z,68.50
2018-07-10T13:50:40.295Z,68.30
2018-07-10T13:53:09.642Z,68.50
2018-07-10T13:55:38.962Z,69.20
2018-07-10T13:58:12.419Z,69.10
2018-07-10T14:00:45.085Z,69.10
2018-07-10T14:03:14.497Z,68.70
2018-07-10T14:05:43.852Z,68.30
2018-07-10T14:08:13.192Z,68.70
2018-07-10T14:10:42.547Z,67.20
2018-07-10T14:13:11.963Z,66.10
2018-07-10T14:15:42.071Z,65.60
2018-07-10T14:18:11.651Z,64.30
2018-07-10T14:20:48.238Z,63.60
2018-07-10T14:23:17.703Z,62.50
2018-07-10T14:25:47.624Z,62.20
2018-07-10T14:28:16.901Z,61.80
2018-07-10T14:30:46.242Z,61.20
2018-07-10T14:33:15.546Z,61.00
2018-07-10T14:35:44.899Z,61.20
2018-07-10T14:38:17.291Z,61.30
2018-07-10T14:40:50.157Z,61.10
2018-07-10T14:43:50.309Z,61.30
2018-07-10T14:46:23.126Z,61.90
2018-07-10T14:48:59.079Z,61.50
2018-07-10T14:51:36.794Z,61.40
2018-07-10T14:54:06.216Z,61.80
2018-07-10T14:56:35.919Z,62.40
2018-07-10T14:59:05.469Z,62.50
2018-07-10T15:01:34.879Z,62.20
2018-07-10T15:04:04.188Z,62.40
2018-07-10T15:06:33.488Z,62.10
2018-07-10T15:09:03.076Z,62.40
2018-07-10T15:11:32.571Z,62.40
2018-07-10T15:14:04.497Z,62.20
2018-07-10T15:16:39.043Z,62.30
2018-07-10T15:19:08.414Z,62.60
2018-07-10T15:21:37.645Z,62.10
2018-07-10T15:24:08.145Z,60.70
2018-07-10T15:26:37.460Z,61.20
2018-07-10T15:29:06.667Z,61.60
2018-07-10T15:31:36.003Z,61.80
2018-07-10T15:34:05.411Z,61.60
2018-07-10T15:36:34.711Z,61.10
2018-07-10T15:39:05.119Z,61.20
2018-07-10T15:41:34.366Z,61.20
2018-07-10T15:44:03.679Z,60.80
2018-07-10T15:46:33.013Z,60.40
2018-07-10T15:49:02.460Z,60.10
2018-07-10T15:51:32.082Z,59.80
2018-07-10T15:54:04.005Z,59.60
2018-07-10T15:56:33.287Z,59.50
2018-07-10T16:01:31.526Z,59.10
2018-07-10T16:04:00.869Z,59.30
2018-07-10T16:06:31.925Z,59.70
2018-07-10T16:09:08.911Z,59.80
2018-07-10T16:11:39.488Z,60.00
2018-07-10T16:14:08.905Z,59.80
2018-07-10T16:16:38.465Z,59.80
2018-07-10T16:19:10.661Z,59.70
2018-07-10T16:21:58.693Z,59.60
2018-07-10T16:24:29.959Z,59.50
2018-07-10T16:26:59.256Z,59.30
2018-07-10T16:29:28.647Z,58.60
2018-07-10T16:32:00.407Z,57.60
2018-07-10T16:34:30.009Z,57.10
2018-07-10T16:36:59.791Z,57.10
2018-07-10T16:39:29.839Z,57.20
2018-07-10T16:42:04.163Z,57.10
2018-07-10T16:44:36.891Z,56.80
2018-07-10T16:47:08.815Z,57.40
2018-07-10T16:49:44.762Z,58.00
2018-07-10T16:55:07.495Z,57.70
2018-07-10T16:57:36.623Z,57.30
2018-07-10T17:00:05.954Z,57.20
2018-07-10T17:02:38.066Z,57.10
2018-07-10T17:05:07.458Z,57.20
2018-07-10T17:07:37.773Z,56.50
2018-07-10T17:10:07.179Z,55.90
2018-07-10T17:12:36.664Z,56.40
2018-07-10T17:15:22.334Z,57.60
2018-07-10T17:17:51.664Z,56.80
2018-07-10T17:20:20.928Z,56.40
2018-07-10T17:22:50.371Z,55.80
2018-07-10T17:25:19.756Z,55.70
2018-07-10T17:27:50.399Z,55.70
2018-07-10T17:30:19.683Z,55.70
2018-07-10T17:32:49.032Z,55.50
2018-07-10T17:35:18.383Z,55.50
2018-07-10T17:37:49.303Z,56.00
2018-07-10T17:40:19.019Z,56.10
2018-07-10T17:42:50.228Z,56.60
2018-07-10T17:45:22.723Z,57.40
2018-07-10T17:47:52.294Z,57.80
2018-07-10T17:50:22.308Z,57.90
2018-07-10T17:52:51.551Z,57.80
2018-07-10T17:55:41.533Z,57.60
2018-07-10T17:58:10.872Z,57.60
2018-07-10T18:00:40.178Z,57.40
2018-07-10T18:03:10.740Z,57.60
2018-07-10T18:05:40.648Z,57.70
2018-07-10T18:08:09.903Z,58.00
2018-07-10T18:10:40.010Z,58.30
2018-07-10T18:13:09.315Z,58.60
2018-07-10T18:15:39.040Z,59.40
2018-07-10T18:18:30.516Z,60.10
2018-07-10T18:21:00.134Z,60.40
2018-07-10T18:23:29.395Z,60.60
2018-07-10T18:25:58.700Z,60.60
2018-07-10T18:28:27.972Z,61.60
2018-07-10T18:30:57.267Z,62.20
2018-07-10T18:33:27.127Z,62.10
2018-07-10T18:35:56.755Z,61.60
2018-07-10T18:38:26.172Z,61.20
2018-07-10T18:40:55.750Z,61.50
2018-07-10T18:43:28.045Z,61.70
2018-07-10T18:45:57.101Z,61.50
2018-07-10T18:48:27.599Z,60.90
2018-07-10T18:50:57.687Z,61.20
2018-07-10T18:53:27.481Z,61.30
2018-07-10T18:55:56.803Z,61.60
2018-07-10T18:58:49.522Z,61.90
2018-07-10T19:01:27.188Z,61.70
2018-07-10T19:03:56.943Z,62.50
2018-07-10T19:06:26.283Z,62.80
2018-07-10T19:08:55.890Z,63.60
2018-07-10T19:11:27.270Z,62.40
2018-07-10T19:14:03.115Z,61.80
2018-07-10T19:16:32.863Z,62.20
2018-07-10T19:21:35.014Z,63.40
2018-07-10T19:24:06.637Z,63.90
2018-07-10T19:26:37.647Z,63.10
2018-07-10T19:30:11.093Z,63.00
2018-07-10T19:32:40.283Z,63.70
2018-07-10T19:35:10.002Z,64.20
2018-07-10T19:37:40.201Z,64.70
2018-07-10T19:40:09.605Z,65.40
2018-07-10T19:42:40.008Z,65.40
2018-07-10T19:45:10.603Z,65.20
2018-07-10T19:47:40.961Z,65.40
2018-07-10T19:50:20.893Z,65.80
2018-07-10T19:52:55.106Z,66.40
2018-07-10T19:55:27.783Z,66.60
2018-07-10T19:58:32.157Z,66.60
2018-07-10T20:01:17.382Z,67.10
2018-07-10T20:04:52.653Z,67.50
2018-07-10T20:07:29.203Z,67.20
2018-07-10T20:10:11.240Z,67.30
2018-07-10T20:12:47.595Z,68.00
2018-07-10T20:15:25.032Z,68.40
2018-07-10T20:18:02.405Z,69.10
2018-07-10T20:20:34.835Z,69.50
2018-07-10T20:23:16.055Z,69.40
2018-07-10T20:26:00.654Z,69.50
2018-07-10T20:29:53.026Z,69.50
2018-07-10T20:32:30.900Z,69.40
2018-07-10T20:35:10.441Z,69.50
2018-07-10T20:37:39.887Z,70.50
2018-07-10T20:40:09.174Z,70.00
2018-07-10T20:42:41.689Z,70.40
2018-07-10T20:45:10.882Z,70.30
2018-07-10T20:47:48.165Z,70.50
2018-07-10T20:50:21.784Z,71.00
2018-07-10T20:52:59.294Z,70.70
2018-07-10T20:55:35.139Z,70.70
2018-07-10T20:58:08.115Z,71.10
2018-07-10T21:00:40.639Z,71.30
2018-07-10T21:03:15.884Z,71.70
2018-07-10T21:05:49.248Z,71.90
2018-07-10T21:08:28.062Z,72.00
2018-07-10T21:11:01.191Z,71.70
2018-07-10T21:13:43.027Z,71.40
2018-07-10T21:16:22.826Z,71.50
2018-07-10T21:19:01.348Z,71.80
2018-07-10T21:23:49.902Z,71.70
2018-07-10T21:26:32.327Z,71.60
2018-07-10T21:29:10.076Z,71.80
2018-07-10T21:32:16.590Z,72.20
2018-07-10T21:34:50.914Z,72.20
2018-07-10T21:37:26.132Z,72.30
2018-07-10T21:40:06.462Z,72.00
2018-07-10T21:42:43.795Z,71.50
2018-07-10T21:45:22.585Z,71.50
2018-07-10T21:48:04.045Z,72.10
2018-07-10T21:50:42.822Z,72.30
2018-07-10T21:53:12.355Z,72.50
2018-07-10T21:55:41.462Z,72.80
2018-07-10T21:58:10.598Z,73.00
2018-07-10T22:02:55.246Z,73.20
2018-07-10T22:05:24.376Z,72.90
2018-07-10T22:07:53.537Z,72.30
2018-07-10T22:10:22.863Z,72.50
2018-07-10T22:12:52.934Z,72.60
2018-07-10T22:15:22.551Z,72.90
2018-07-10T22:17:53.664Z,73.30
2018-07-10T22:20:23.104Z,73.50
2018-07-10T22:22:52.610Z,73.60
2018-07-10T22:25:21.952Z,73.60
2018-07-10T22:27:51.472Z,73.40
2018-07-10T22:30:25.899Z,73.00
2018-07-10T22:33:05.996Z,72.80
2018-07-10T22:35:35.291Z,73.00
2018-07-10T22:38:05.619Z,73.10
2018-07-10T22:40:34.960Z,73.30
2018-07-10T22:43:04.259Z,73.40
2018-07-10T22:45:33.863Z,73.70
2018-07-10T22:48:03.192Z,74.20
2018-07-10T22:50:32.556Z,74.30
2018-07-10T22:53:02.571Z,74.20
2018-07-10T22:55:33.147Z,74.00
2018-07-10T22:58:07.913Z,73.90
2018-07-10T23:00:38.444Z,74.00
2018-07-10T23:03:24.615Z,73.90
2018-07-10T23:05:54.967Z,73.80
2018-07-10T23:08:31.636Z,73.70
2018-07-10T23:11:02.975Z,73.90
2018-07-10T23:13:35.795Z,74.30
2018-07-10T23:16:04.935Z,75.00
2018-07-10T23:18:34.251Z,75.20
2018-07-10T23:21:04.576Z,75.30
2018-07-10T23:23:33.934Z,75.40
2018-07-10T23:26:03.214Z,75.60
2018-07-10T23:28:32.931Z,75.90
2018-07-10T23:31:03.820Z,76.20
2018-07-10T23:33:33.231Z,77.50
2018-07-10T23:36:03.859Z,76.50
2018-07-10T23:41:23.823Z,76.40
2018-07-10T23:43:54.873Z,76.30
2018-07-10T23:46:34.982Z,76.30
2018-07-10T23:49:15.583Z,76.40
2018-07-10T23:51:55.644Z,76.40
2018-07-10T23:54:24.942Z,76.80
2018-07-10T23:56:54.243Z,76.30
2018-07-10T23:59:23.615Z,76.20
